Time;durP1;ratioP1;P1;durP2;ratioP2;P2;SDS_P1;SDS_P2;PMS_P1;PMS_P2;Temp;Humidity;BMP_temperature;BMP_pressure;BME280_temperature;BME280_humidity;BME280_pressure;Samples;Min_cycle;Max_cycle;Signal;HPM_P1;HPM_P2
2022/02/23 00:02:24;;;;;;;3.37;0.90;;;;;;;10.71;59.29;97966.28;5030511;28;20218;-70
2022/02/23 00:04:50;;;;;;;2.37;0.87;;;;;;;10.54;59.65;97960.69;5031639;28;20193;-72
2022/02/23 00:07:31;;;;;;;1.57;0.90;;;;;;;10.85;59.02;97952.75;5031002;28;20227;-70
2022/02/23 00:09:56;;;;;;;1.87;0.97;;;;;;;10.77;59.13;97963.09;5020400;28;20202;-70
2022/02/23 00:12:21;;;;;;;2.17;1.37;;;;;;;10.83;59.30;97959.94;5030383;28;20807;-70
2022/02/23 00:14:47;;;;;;;3.40;1.20;;;;;;;10.82;59.26;97968.78;5031700;28;20187;-70
2022/02/23 00:17:12;;;;;;;4.33;1.13;;;;;;;10.62;59.84;97961.81;5031988;28;20204;-69
2022/02/23 00:19:38;;;;;;;1.87;1.00;;;;;;;10.66;59.86;97958.78;5031517;28;20183;-69
2022/02/23 00:22:04;;;;;;;3.43;0.90;;;;;;;10.55;60.60;97959.75;5031403;28;20187;-70
2022/02/23 00:24:29;;;;;;;2.50;1.00;;;;;;;10.71;60.31;97955.78;5020144;28;20656;-70
2022/02/23 00:26:55;;;;;;;3.33;1.17;;;;;;;10.65;60.70;97966.78;5031241;28;20507;-70
2022/02/23 00:29:20;;;;;;;2.00;1.10;;;;;;;10.63;60.92;97959.06;5016069;28;20199;-70
2022/02/23 00:31:46;;;;;;;2.60;0.83;;;;;;;10.53;61.26;97951.19;5011777;28;20183;-70
2022/02/23 00:34:11;;;;;;;2.53;0.90;;;;;;;10.62;61.70;97970.53;5011335;28;20663;-69
2022/02/23 00:36:37;;;;;;;1.73;0.90;;;;;;;10.71;61.12;97961.84;5024271;28;20579;-70
2022/02/23 00:39:02;;;;;;;1.87;0.90;;;;;;;10.83;61.16;97967.81;5030995;28;20203;-70
2022/02/23 00:41:28;;;;;;;3.03;1.07;;;;;;;10.85;61.16;97971.09;5031134;28;20195;-69
2022/02/23 00:43:54;;;;;;;2.30;0.80;;;;;;;10.80;61.43;97968.06;5030790;28;20244;-69
2022/02/23 00:46:19;;;;;;;1.30;0.77;;;;;;;10.89;61.47;97976.94;5029088;28;20237;-70
2022/02/23 00:48:45;;;;;;;2.57;0.90;;;;;;;10.73;62.31;97980.06;5030690;28;20257;-70
2022/02/23 00:51:11;;;;;;;1.80;0.80;;;;;;;10.78;62.06;97982.25;5031279;28;20644;-69
2022/02/23 00:53:36;;;;;;;7.13;1.00;;;;;;;10.77;62.60;97985.88;5012798;28;20430;-70
2022/02/23 00:56:02;;;;;;;2.07;1.00;;;;;;;10.81;62.57;97982.00;5029346;28;20249;-71
2022/02/23 01:01:49;;;;;;;1.40;0.73;;;;;;;11.05;61.85;97982.47;5013765;28;20546;-70
2022/02/23 01:04:14;;;;;;;2.23;0.90;;;;;;;10.94;62.28;97987.00;5028314;28;20437;-72
2022/02/23 01:06:40;;;;;;;3.13;0.80;;;;;;;11.05;62.11;97986.88;5029265;28;20216;-71
2022/02/23 01:09:05;;;;;;;3.83;0.97;;;;;;;11.08;61.81;97984.00;5030940;28;20224;-71
2022/02/23 01:11:31;;;;;;;2.80;1.10;;;;;;;11.13;61.64;97987.03;5012984;28;20192;-70
2022/02/23 01:13:56;;;;;;;5.33;1.20;;;;;;;11.12;61.63;97992.41;5029297;28;20183;-71
2022/02/23 01:16:22;;;;;;;1.80;1.10;;;;;;;11.09;62.08;97996.13;5028604;28;20219;-69
2022/02/23 01:18:47;;;;;;;1.80;0.93;;;;;;;11.18;62.00;97992.72;5030937;28;20184;-70
2022/02/23 01:21:13;;;;;;;2.10;1.13;;;;;;;11.28;61.96;97992.69;5030591;28;20180;-72
2022/02/23 01:23:38;;;;;;;2.10;1.20;;;;;;;11.37;61.78;97999.75;5029386;28;20183;-71
2022/02/23 01:26:04;;;;;;;1.30;1.00;;;;;;;11.41;61.69;98000.31;5030853;28;20568;-71
2022/02/23 01:28:31;;;;;;;3.50;1.33;;;;;;;11.22;62.37;98009.00;5030834;28;20215;-71
2022/02/23 01:30:57;;;;;;;2.90;0.93;;;;;;;11.20;62.55;98013.56;5030656;28;20423;-71
2022/02/23 01:33:22;;;;;;;2.03;1.40;;;;;;;11.20;62.76;98014.41;5012535;28;20441;-71
2022/02/23 01:35:48;;;;;;;1.33;0.87;;;;;;;11.26;62.61;98013.03;5032523;28;20550;-71
2022/02/23 01:38:14;;;;;;;3.80;1.37;;;;;;;11.16;63.01;98025.28;5033081;28;20215;-71
2022/02/23 01:40:39;;;;;;;3.00;1.17;;;;;;;11.29;62.68;98027.66;5033124;28;20596;-70
2022/02/23 01:43:05;;;;;;;2.30;0.93;;;;;;;11.34;62.86;98031.53;5015735;28;20432;-71
2022/02/23 01:45:30;;;;;;;1.97;1.07;;;;;;;11.16;63.19;98028.75;5033208;28;20180;-70
2022/02/23 01:47:56;;;;;;;2.03;1.37;;;;;;;11.24;62.92;98042.97;5033434;28;20268;-70
2022/02/23 01:50:22;;;;;;;2.63;1.00;;;;;;;11.22;63.14;98043.91;5015262;28;20191;-72
2022/02/23 01:52:47;;;;;;;4.50;1.10;;;;;;;11.27;62.78;98050.56;5033350;28;20184;-72
2022/02/23 01:55:13;;;;;;;3.73;1.40;;;;;;;11.28;63.07;98046.97;5032601;28;20190;-71
2022/02/23 01:57:38;;;;;;;1.80;1.20;;;;;;;11.34;62.74;98054.31;5032211;28;20203;-72
2022/02/23 02:00:07;;;;;;;4.93;2.10;;;;;;;11.40;62.91;98119.38;5033559;28;20236;-71
2022/02/23 02:02:34;;;;;;;2.23;0.80;;;;;;;10.87;59.75;98120.47;5026299;28;20184;-71
2022/02/23 02:05:00;;;;;;;1.40;0.80;;;;;;;10.84;58.83;98139.91;5033338;28;20430;-71
2022/02/23 02:07:25;;;;;;;2.67;0.67;;;;;;;10.50;58.74;98142.78;5032319;28;20492;-71
2022/02/23 02:09:51;;;;;;;3.37;1.23;;;;;;;10.52;59.13;98148.72;5025113;28;20221;-71
2022/02/23 02:12:16;;;;;;;3.80;1.00;;;;;;;10.38;59.11;98156.91;5032329;28;20190;-70
2022/02/23 02:14:42;;;;;;;6.53;1.10;;;;;;;10.29;59.35;98151.44;5032557;28;20262;-70
2022/02/23 02:17:07;;;;;;;5.17;1.77;;;;;;;10.34;59.32;98164.16;5037605;28;20210;-69
2022/02/23 02:19:33;;;;;;;2.43;1.10;;;;;;;10.06;59.08;98161.19;5033214;28;20186;-70
2022/02/23 02:22:00;;;;;;;5.80;1.57;;;;;;;10.10;59.22;98162.63;5033415;28;20738;-69
2022/02/23 02:24:28;;;;;;;5.60;1.63;;;;;;;10.11;58.84;98166.03;5032839;28;20194;-70
2022/02/23 02:26:55;;;;;;;3.10;1.00;;;;;;;10.10;58.85;98173.09;5032087;28;20483;-71
2022/02/23 02:29:20;;;;;;;6.47;1.20;;;;;;;10.08;58.88;98182.84;5032272;28;20435;-69
2022/02/23 02:31:46;;;;;;;3.83;0.93;;;;;;;10.12;59.18;98192.13;5032536;28;20462;-69
2022/02/23 02:34:12;;;;;;;5.10;1.80;;;;;;;10.07;59.06;98189.03;5032320;28;20656;-69
2022/02/23 02:36:38;;;;;;;6.27;1.73;;;;;;;10.12;58.91;98191.28;5032335;28;20445;-70
2022/02/23 02:39:05;;;;;;;6.77;1.20;;;;;;;10.15;58.94;98191.84;5039925;28;20428;-70
2022/02/23 02:41:32;;;;;;;7.67;1.40;;;;;;;10.19;58.73;98187.22;5032278;28;20435;-70
2022/02/23 02:43:57;;;;;;;5.47;1.57;;;;;;;10.25;59.01;98189.31;5032264;28;20918;-70
2022/02/23 02:46:22;;;;;;;4.93;2.10;;;;;;;10.32;57.74;98196.69;5031761;28;20461;-69
2022/02/23 02:48:48;;;;;;;5.03;1.50;;;;;;;10.31;58.37;98198.47;5032122;28;20732;-69
2022/02/23 02:51:13;;;;;;;5.23;1.70;;;;;;;10.24;58.27;98206.00;5031852;28;20184;-69
2022/02/23 02:53:39;;;;;;;3.40;1.53;;;;;;;10.22;58.21;98207.91;5032675;28;20212;-70
2022/02/23 02:56:04;;;;;;;5.73;1.10;;;;;;;10.27;58.72;98211.00;5032391;28;20205;-70
2022/02/23 02:58:30;;;;;;;3.73;1.10;;;;;;;10.32;58.44;98207.19;5032070;28;20184;-69
2022/02/23 03:00:55;;;;;;;4.90;1.13;;;;;;;10.27;57.73;98205.75;5028054;28;20269;-70
2022/02/23 03:03:21;;;;;;;7.40;1.63;;;;;;;10.30;58.39;98220.38;5032617;28;20203;-69
2022/02/23 03:05:47;;;;;;;5.97;1.87;;;;;;;10.40;58.22;98230.97;5029958;28;20232;-69
2022/02/23 03:08:14;;;;;;;4.40;1.47;;;;;;;10.34;58.43;98237.53;5032249;28;20205;-69
2022/02/23 03:10:40;;;;;;;3.60;1.30;;;;;;;10.35;58.20;98230.50;5014262;28;20434;-71
2022/02/23 03:13:07;;;;;;;3.97;1.40;;;;;;;10.34;58.39;98231.44;5032236;28;20433;-70
2022/02/23 03:15:33;;;;;;;2.80;1.27;;;;;;;10.34;57.81;98231.44;5023587;28;20431;-70
2022/02/23 03:17:58;;;;;;;5.00;1.33;;;;;;;10.37;57.49;98233.81;5032436;28;20498;-71
2022/02/23 03:20:24;;;;;;;8.53;1.33;;;;;;;10.33;57.52;98232.44;5032200;28;20430;-70
2022/02/23 03:22:49;;;;;;;8.90;1.50;;;;;;;10.30;56.67;98226.47;5032313;28;20233;-71
2022/02/23 03:25:15;;;;;;;4.43;1.37;;;;;;;10.21;57.27;98231.63;5031561;28;20204;-71
2022/02/23 03:27:40;;;;;;;4.40;1.20;;;;;;;10.22;56.87;98228.88;5032005;28;20767;-71
2022/02/23 03:30:06;;;;;;;6.43;1.67;;;;;;;10.10;57.53;98229.88;5034513;28;20176;-70
2022/02/23 03:32:32;;;;;;;5.20;1.80;;;;;;;10.16;57.17;98234.63;5031560;28;20270;-71
2022/02/23 03:34:57;;;;;;;3.83;1.37;;;;;;;10.21;57.23;98240.31;5031953;28;20431;-71
2022/02/23 03:37:22;;;;;;;7.67;1.37;;;;;;;10.17;56.90;98241.53;5031606;28;20202;-71
2022/02/23 03:39:49;;;;;;;7.67;1.60;;;;;;;10.25;57.52;98248.78;5032039;28;20730;-71
2022/02/23 03:42:15;;;;;;;7.13;1.90;;;;;;;10.28;57.23;98258.97;5031660;28;20245;-72
2022/02/23 03:44:41;;;;;;;3.60;1.23;;;;;;;10.22;56.83;98254.25;5034120;28;20461;-70
2022/02/23 03:47:06;;;;;;;4.90;1.30;;;;;;;10.17;57.00;98265.09;5034914;28;20481;-71
2022/02/23 03:49:32;;;;;;;5.77;1.30;;;;;;;10.22;57.23;98265.56;5031733;28;20266;-70
2022/02/23 03:51:57;;;;;;;2.97;1.30;;;;;;;10.22;57.31;98265.56;5031262;28;20194;-71
2022/02/23 03:54:23;;;;;;;7.87;1.33;;;;;;;10.22;57.31;98278.66;5031696;28;20650;-71
2022/02/23 03:56:48;;;;;;;5.27;1.53;;;;;;;10.21;57.41;98291.88;5031385;28;20215;-71
2022/02/23 03:59:14;;;;;;;8.50;1.63;;;;;;;10.21;57.48;98284.03;5030665;28;20291;-71
2022/02/23 04:01:42;;;;;;;7.20;1.50;;;;;;;10.20;57.43;98293.69;5031291;28;20180;-71
2022/02/23 04:04:08;;;;;;;7.20;1.40;;;;;;;10.07;57.53;98287.75;5031108;28;20554;-70
2022/02/23 04:06:37;;;;;;;6.17;1.90;;;;;;;10.05;58.10;98289.66;5013264;28;20988;-71
2022/02/23 04:09:05;;;;;;;4.60;2.10;;;;;;;10.01;57.94;98291.72;5031195;28;20881;-71
2022/02/23 04:11:31;;;;;;;4.37;2.03;;;;;;;9.94;58.03;98291.38;5039557;28;20481;-71
2022/02/23 04:13:56;;;;;;;8.00;1.43;;;;;;;9.87;58.28;98298.03;5024645;28;20468;-70
2022/02/23 04:16:22;;;;;;;5.30;1.77;;;;;;;9.89;57.84;98303.97;5030987;28;20200;-69
2022/02/23 04:18:47;;;;;;;4.47;1.60;;;;;;;9.90;58.37;98308.25;5018514;28;20181;-70
2022/02/23 04:21:13;;;;;;;5.20;2.00;;;;;;;9.87;58.69;98305.88;5037706;28;20182;-69
2022/02/23 04:23:39;;;;;;;5.40;2.00;;;;;;;9.84;58.60;98321.81;5013651;28;20269;-69
2022/02/23 04:26:04;;;;;;;6.80;2.10;;;;;;;9.84;58.74;98324.44;5030883;28;20654;-69
2022/02/23 04:28:31;;;;;;;8.70;2.13;;;;;;;9.82;59.13;98329.81;5029680;28;20208;-69
2022/02/23 04:30:59;;;;;;;4.13;2.20;;;;;;;9.88;59.01;98335.53;5031097;28;20179;-69
2022/02/23 04:33:25;;;;;;;5.50;2.10;;;;;;;9.87;58.58;98339.91;5012759;28;20428;-68
2022/02/23 04:35:51;;;;;;;7.20;2.00;;;;;;;9.89;58.87;98350.28;5029134;28;20433;-70
2022/02/23 04:38:17;;;;;;;5.20;2.37;;;;;;;9.89;58.95;98350.28;5030737;28;20186;-70
2022/02/23 04:40:43;;;;;;;6.23;2.00;;;;;;;9.80;58.96;98359.69;5031472;28;20526;-70
2022/02/23 04:43:12;;;;;;;7.80;1.67;;;;;;;9.79;59.25;98358.84;5029792;28;20438;-71
2022/02/23 04:45:38;;;;;;;7.30;2.20;;;;;;;9.82;59.33;98368.25;5012638;28;20427;-71
2022/02/23 04:48:04;;;;;;;5.00;1.83;;;;;;;9.82;59.18;98373.50;5029871;28;20470;-70
2022/02/23 04:50:29;;;;;;;6.90;2.00;;;;;;;9.84;59.67;98358.47;5010765;28;21529;-70
2022/02/23 04:52:55;;;;;;;9.13;2.10;;;;;;;9.86;59.13;98366.22;5030674;28;20581;-70
2022/02/23 04:55:20;;;;;;;5.83;2.20;;;;;;;9.84;59.20;98371.56;5029339;28;20189;-69
2022/02/23 04:57:46;;;;;;;4.20;2.00;;;;;;;9.86;59.29;98372.28;5030306;28;20285;-70
2022/02/23 05:00:12;;;;;;;6.03;2.10;;;;;;;9.85;59.50;98368.00;5030174;28;20198;-70
2022/02/23 05:02:37;;;;;;;5.93;2.03;;;;;;;9.74;59.68;98373.25;5029122;28;20190;-70
2022/02/23 05:05:03;;;;;;;8.17;2.37;;;;;;;9.72;58.83;98368.13;5030105;28;20417;-70
2022/02/23 05:07:29;;;;;;;4.63;2.10;;;;;;;9.70;59.54;98377.06;5029318;28;20294;-69
2022/02/23 05:09:56;;;;;;;10.53;2.27;;;;;;;9.71;59.51;98379.56;5029056;28;20283;-69
2022/02/23 05:12:21;;;;;;;8.70;2.40;;;;;;;9.71;59.46;98376.09;5014602;28;20185;-71
2022/02/23 05:14:47;;;;;;;5.87;2.13;;;;;;;9.71;59.04;98379.56;5033770;28;20431;-71
2022/02/23 05:17:14;;;;;;;5.97;1.87;;;;;;;9.67;58.83;98381.59;5033948;28;20203;-70
2022/02/23 05:19:40;;;;;;;8.53;2.30;;;;;;;9.63;58.59;98388.00;5033948;28;20273;-70
2022/02/23 05:22:06;;;;;;;8.30;2.00;;;;;;;9.59;59.04;98389.16;5033552;28;20435;-70
2022/02/23 05:24:33;;;;;;;5.33;1.97;;;;;;;9.55;58.75;98392.13;5033242;28;20431;-69
2022/02/23 05:26:58;;;;;;;5.70;2.57;;;;;;;9.54;58.95;98399.16;5034010;28;20209;-69
2022/02/23 05:29:24;;;;;;;4.83;2.10;;;;;;;9.49;58.75;98403.91;5034039;28;20440;-72
2022/02/23 05:31:50;;;;;;;7.43;2.00;;;;;;;9.49;58.97;98396.91;5031755;28;20239;-71
2022/02/23 05:34:16;;;;;;;6.63;2.60;;;;;;;9.47;59.55;98396.19;5033705;28;20437;-71
2022/02/23 05:36:42;;;;;;;6.60;2.20;;;;;;;9.51;59.29;98391.53;5033552;28;20963;-69
2022/02/23 05:39:08;;;;;;;6.23;2.47;;;;;;;9.48;58.70;98397.84;5032814;28;20188;-71
2022/02/23 05:41:33;;;;;;;5.30;2.70;;;;;;;9.43;58.05;98401.78;5040321;28;20183;-71
2022/02/23 05:43:59;;;;;;;4.73;2.20;;;;;;;9.34;58.80;98392.81;5033575;28;20974;-71
2022/02/23 05:46:24;;;;;;;11.60;3.20;;;;;;;9.35;58.56;98402.34;5032177;28;20803;-70
2022/02/23 05:48:50;;;;;;;7.50;2.90;;;;;;;9.32;58.98;98405.19;5033115;28;20206;-70
2022/02/23 05:51:25;;;;;;;6.37;2.93;;;;;;;9.33;58.71;98409.47;5033458;28;20266;-70
2022/02/23 05:53:51;;;;;;;8.33;3.27;;;;;;;9.25;58.36;98417.88;5033575;28;20263;-68
2022/02/23 05:56:16;;;;;;;15.50;3.00;;;;;;;9.26;58.59;98418.75;5032378;28;20863;-68
2022/02/23 05:58:42;;;;;;;13.10;4.07;;;;;;;9.24;58.63;98418.84;5033026;28;20272;-69
2022/02/23 06:01:10;;;;;;;11.30;3.33;;;;;;;9.20;58.19;98431.31;5032672;28;20195;-69
2022/02/23 06:03:35;;;;;;;8.87;3.67;;;;;;;9.19;57.93;98428.81;5015263;28;20189;-68
2022/02/23 06:06:01;;;;;;;8.93;5.20;;;;;;;9.18;57.70;98432.38;5033251;28;20435;-68
2022/02/23 06:08:26;;;;;;;7.17;4.17;;;;;;;9.11;57.36;98436.38;5032811;28;20247;-70
2022/02/23 06:10:52;;;;;;;10.90;3.30;;;;;;;8.88;58.65;98446.75;5033034;28;20197;-70
2022/02/23 06:13:17;;;;;;;5.20;2.50;;;;;;;8.98;58.40;98452.97;5032229;28;20177;-70
2022/02/23 06:15:43;;;;;;;12.10;2.50;;;;;;;8.95;58.58;98455.81;5031510;28;20173;-70
2022/02/23 06:18:08;;;;;;;10.63;3.60;;;;;;;9.03;57.96;98461.31;5030190;28;20889;-68
2022/02/23 06:20:34;;;;;;;7.10;3.10;;;;;;;9.07;58.23;98461.94;5022461;28;20265;-68
2022/02/23 06:22:59;;;;;;;13.07;4.00;;;;;;;9.06;57.95;98468.09;5033017;28;20188;-70
2022/02/23 06:25:25;;;;;;;11.60;4.90;;;;;;;9.04;57.57;98473.47;5032972;28;20185;-70
2022/02/23 06:27:50;;;;;;;6.80;3.20;;;;;;;9.01;56.96;98476.28;5032978;28;20237;-69
2022/02/23 06:30:15;;;;;;;8.90;3.47;;;;;;;8.96;57.53;98475.78;5032824;28;20187;-69
2022/02/23 06:32:41;;;;;;;7.60;3.10;;;;;;;8.98;57.34;98481.72;5033569;28;20257;-71
2022/02/23 06:35:07;;;;;;;6.80;2.70;;;;;;;8.97;57.38;98485.28;5032912;28;20195;-71
2022/02/23 06:37:33;;;;;;;12.03;2.93;;;;;;;8.96;58.02;98496.69;5024374;28;20198;-69
2022/02/23 06:39:58;;;;;;;9.43;3.27;;;;;;;8.87;56.94;98493.00;5033155;28;20521;-70
2022/02/23 06:42:24;;;;;;;5.33;3.40;;;;;;;8.80;57.84;98501.38;5032809;28;20183;-70
2022/02/23 06:44:49;;;;;;;15.40;3.93;;;;;;;8.73;57.31;98508.81;5021712;28;20232;-70
2022/02/23 06:47:15;;;;;;;14.40;6.30;;;;;;;8.66;57.08;98500.56;5032250;28;20219;-71
2022/02/23 06:49:41;;;;;;;15.33;6.97;;;;;;;8.68;57.56;98503.91;5035302;28;20194;-73
2022/02/23 06:52:10;;;;;;;14.57;5.60;;;;;;;8.72;57.94;98504.53;5014818;28;20436;-71
2022/02/23 06:54:36;;;;;;;9.73;4.47;;;;;;;8.70;57.95;98509.84;5023687;28;20192;-70
2022/02/23 06:57:05;;;;;;;9.73;4.57;;;;;;;8.80;57.67;98522.28;5032622;28;20449;-72
2022/02/23 06:59:30;;;;;;;5.93;4.00;;;;;;;8.78;58.40;98513.72;5024086;28;20181;-71
2022/02/23 07:01:56;;;;;;;9.20;4.37;;;;;;;8.76;58.06;98519.88;5032708;28;20938;-71
2022/02/23 07:04:21;;;;;;;8.73;3.93;;;;;;;8.83;57.97;98522.06;5032511;28;20206;-71
2022/02/23 07:06:47;;;;;;;10.40;4.20;;;;;;;8.92;57.68;98526.66;5032506;28;20557;-71
2022/02/23 07:09:12;;;;;;;8.40;3.87;;;;;;;9.05;57.70;98519.59;5032447;28;20220;-72
2022/02/23 07:11:38;;;;;;;8.40;4.10;;;;;;;9.15;58.31;98526.78;5031820;28;20194;-71
2022/02/23 07:14:04;;;;;;;11.07;4.47;;;;;;;9.27;58.11;98525.88;5032103;28;20275;-71
2022/02/23 07:16:30;;;;;;;7.30;4.10;;;;;;;9.42;57.80;98529.16;5032201;28;20254;-71
2022/02/23 07:18:55;;;;;;;13.47;5.27;;;;;;;9.48;57.51;98535.72;5032741;28;20425;-72
2022/02/23 07:21:21;;;;;;;8.43;4.63;;;;;;;9.52;57.73;98531.94;5031550;28;20434;-71
2022/02/23 07:23:46;;;;;;;7.80;5.27;;;;;;;9.58;57.59;98534.06;5032502;28;20682;-71
2022/02/23 07:26:14;;;;;;;9.63;5.50;;;;;;;9.57;58.12;98547.28;5031904;28;20201;-70
2022/02/23 07:28:40;;;;;;;18.33;7.80;;;;;;;9.57;57.89;98542.06;5032263;28;20197;-71
2022/02/23 07:31:07;;;;;;;16.10;8.30;;;;;;;9.57;58.76;98552.53;5014163;28;20877;-71
2022/02/23 07:33:35;;;;;;;14.90;8.90;;;;;;;9.55;58.26;98550.03;5031233;28;20437;-70
2022/02/23 07:36:01;;;;;;;13.70;8.67;;;;;;;9.58;58.54;98547.16;5031977;28;20548;-71
2022/02/23 07:38:26;;;;;;;20.33;11.40;;;;;;;9.55;59.33;98546.56;5032451;28;20452;-72
2022/02/23 07:40:52;;;;;;;12.47;7.23;;;;;;;9.52;59.58;98560.72;5033238;28;20188;-71
2022/02/23 07:43:17;;;;;;;9.57;5.60;;;;;;;9.60;59.44;98557.53;5031595;28;20242;-69
2022/02/23 07:45:43;;;;;;;14.60;6.27;;;;;;;9.64;59.69;98556.38;5032307;28;20689;-71
2022/02/23 07:48:09;;;;;;;11.00;5.47;;;;;;;9.79;59.84;98557.03;5015420;28;20224;-71
2022/02/23 07:50:34;;;;;;;16.37;5.50;;;;;;;9.84;59.96;98566.19;5031613;28;20186;-71
2022/02/23 07:53:00;;;;;;;15.03;5.77;;;;;;;9.97;60.06;98553.00;5031869;28;20186;-71
2022/02/23 07:55:26;;;;;;;15.23;6.70;;;;;;;10.01;60.05;98558.03;5031656;28;20177;-70
2022/02/23 07:57:52;;;;;;;8.43;5.60;;;;;;;10.03;60.26;98559.56;5031327;28;20254;-70
2022/02/23 08:00:20;;;;;;;8.27;5.37;;;;;;;10.02;60.74;98557.06;5031315;28;20948;-71
2022/02/23 08:02:45;;;;;;;11.97;5.10;;;;;;;9.98;60.73;98559.91;5031356;28;20417;-72
2022/02/23 08:05:11;;;;;;;26.43;15.50;;;;;;;9.95;61.12;98565.41;5031089;28;20432;-72
2022/02/23 08:07:36;;;;;;;11.00;6.43;;;;;;;10.10;60.56;98565.19;5024081;28;20212;-72
2022/02/23 08:10:03;;;;;;;10.97;5.30;;;;;;;10.19;60.94;98563.66;5031485;28;20566;-71
2022/02/23 08:12:29;;;;;;;13.00;5.60;;;;;;;10.32;60.58;98566.19;5031157;28;20191;-71
2022/02/23 08:14:56;;;;;;;13.53;4.70;;;;;;;10.40;60.93;98575.13;5031710;28;20497;-72
2022/02/23 08:20:06;;;;;;;8.10;3.40;;;;;;;10.74;60.26;98575.16;5031299;28;20865;-71
2022/02/23 08:22:32;;;;;;;7.73;3.60;;;;;;;11.02;59.91;98570.38;5031888;28;20433;-71
2022/02/23 08:24:58;;;;;;;5.77;2.30;;;;;;;11.34;58.08;98571.38;5031961;28;20506;-72
2022/02/23 08:27:25;;;;;;;12.10;2.00;;;;;;;11.63;57.88;98560.28;5032354;28;20692;-70
2022/02/23 08:29:54;;;;;;;4.97;2.00;;;;;;;12.08;56.65;98561.88;5033646;28;20462;-68
2022/02/23 08:32:23;;;;;;;4.00;2.07;;;;;;;12.49;55.81;98562.81;5033087;28;20846;-71
2022/02/23 08:34:49;;;;;;;7.77;2.23;;;;;;;12.88;53.36;98565.59;5031719;28;20430;-72
2022/02/23 08:37:16;;;;;;;32.23;8.33;;;;;;;13.16;53.07;98554.44;5014168;28;20954;-69
2022/02/23 08:39:42;;;;;;;57.53;17.60;;;;;;;13.39;52.01;98555.03;5018428;28;20982;-72
2022/02/23 08:42:09;;;;;;;28.77;9.50;;;;;;;13.88;52.52;98551.56;5019000;28;20529;-68
2022/02/23 08:44:35;;;;;;;68.27;20.40;;;;;;;14.17;49.91;98548.88;5039455;28;20426;-70
2022/02/23 08:47:01;;;;;;;68.67;22.00;;;;;;;14.50;48.12;98557.25;5034257;28;20458;-69
2022/02/23 08:49:27;;;;;;;49.50;15.90;;;;;;;14.81;48.11;98556.19;5035127;28;20207;-70
2022/02/23 08:51:52;;;;;;;22.17;7.20;;;;;;;14.78;47.23;98554.66;5016794;28;20464;-71
2022/02/23 08:54:19;;;;;;;17.53;4.90;;;;;;;14.94;47.68;98555.84;5035304;28;20295;-72
2022/02/23 08:56:45;;;;;;;8.93;2.07;;;;;;;15.23;46.31;98560.13;5036194;28;20204;-71
2022/02/23 08:59:11;;;;;;;5.00;1.77;;;;;;;15.41;43.37;98550.41;5032492;28;20454;-71
2022/02/23 09:01:36;;;;;;;5.80;1.73;;;;;;;15.20;43.70;98558.59;5029958;28;20509;-71
2022/02/23 09:04:03;;;;;;;7.17;1.50;;;;;;;15.17;43.29;98567.66;5031122;28;20589;-71
2022/02/23 09:06:34;;;;;;;3.80;1.60;;;;;;;15.45;44.52;98556.22;5030965;28;20724;-73
2022/02/23 09:09:03;;;;;;;4.07;1.20;;;;;;;15.78;43.19;98549.41;5031864;28;20470;-72
2022/02/23 09:11:28;;;;;;;8.93;1.70;;;;;;;16.06;42.03;98544.03;5029778;28;20497;-72
2022/02/23 09:13:54;;;;;;;3.93;1.40;;;;;;;16.29;40.56;98548.78;5030955;28;20525;-72
2022/02/23 09:16:19;;;;;;;2.70;1.43;;;;;;;16.54;39.91;98548.94;5032368;28;20222;-73
2022/02/23 09:18:45;;;;;;;3.67;1.20;;;;;;;16.57;40.02;98548.63;5034205;28;20180;-73
2022/02/23 09:21:11;;;;;;;6.63;1.70;;;;;;;16.78;39.85;98545.59;5014692;28;20611;-72
2022/02/23 09:23:36;;;;;;;3.80;1.50;;;;;;;16.83;39.08;98537.97;5033442;28;20327;-73
2022/02/23 09:26:04;;;;;;;4.20;1.00;;;;;;;16.59;37.03;98538.72;5035672;28;20199;-72
2022/02/23 09:28:31;;;;;;;5.10;1.30;;;;;;;16.83;38.32;98534.50;5037107;28;20204;-72
2022/02/23 09:30:56;;;;;;;8.93;1.63;;;;;;;16.54;39.15;98538.34;5036402;28;20427;-72
2022/02/23 09:33:22;;;;;;;9.73;2.17;;;;;;;16.82;39.94;98544.25;5038999;28;20801;-73
2022/02/23 09:35:50;;;;;;;6.00;1.40;;;;;;;16.95;38.43;98535.91;5035111;28;20190;-72
2022/02/23 09:38:17;;;;;;;4.13;1.50;;;;;;;17.47;38.61;98536.69;5039876;28;20187;-72
2022/02/23 09:40:48;;;;;;;8.90;1.93;;;;;;;17.71;38.85;98545.63;5045518;28;20434;-72
2022/02/23 09:43:14;;;;;;;5.00;1.60;;;;;;;18.11;37.64;98552.75;5038117;28;20427;-71
2022/02/23 09:45:42;;;;;;;4.20;1.60;;;;;;;18.10;34.57;98539.69;5012840;28;20427;-72
2022/02/23 09:48:08;;;;;;;6.93;1.20;;;;;;;18.04;34.47;98540.34;5029853;28;20560;-70
2022/02/23 09:50:34;;;;;;;10.07;2.27;;;;;;;18.24;35.19;98539.00;5011691;28;20453;-71
2022/02/23 09:53:01;;;;;;;9.37;1.90;;;;;;;18.29;33.86;98537.63;5030308;28;20426;-70
2022/02/23 09:55:27;;;;;;;6.40;1.53;;;;;;;18.51;34.89;98536.94;5033813;28;20190;-71
2022/02/23 09:57:53;;;;;;;5.70;1.97;;;;;;;18.73;34.01;98547.81;5032366;28;20619;-71
2022/02/23 10:00:20;;;;;;;7.50;1.40;;;;;;;18.90;33.16;98537.13;5033845;28;20439;-71
2022/02/23 10:02:45;;;;;;;7.80;1.67;;;;;;;18.81;33.15;98537.13;5015628;28;20947;-71
2022/02/23 10:05:12;;;;;;;3.80;1.33;;;;;;;19.27;33.28;98539.09;5032879;28;20434;-71
2022/02/23 10:07:40;;;;;;;3.93;1.33;;;;;;;19.73;31.78;98532.94;5033383;28;20584;-71
2022/02/23 10:10:11;;;;;;;6.00;1.13;;;;;;;19.84;31.76;98538.84;5033655;28;20547;-71
2022/02/23 10:12:40;;;;;;;6.03;1.60;;;;;;;20.17;32.43;98535.91;5026011;28;20446;-71
2022/02/23 10:15:07;;;;;;;6.23;1.63;;;;;;;19.89;31.90;98537.31;5033260;28;20537;-72
2022/02/23 10:17:44;;;;;;;4.70;1.37;;;;;;;19.26;31.95;98539.28;5025341;28;20441;-71
2022/02/23 10:20:34;;;;;;;3.30;1.50;;;;;;;19.12;32.49;98544.34;5032964;28;20433;-71
2022/02/23 10:23:02;;;;;;;7.00;1.40;;;;;;;18.94;32.28;98549.06;5015831;28;20422;-70
2022/02/23 10:25:35;;;;;;;5.20;1.40;;;;;;;18.85;33.42;98543.78;5032259;28;20442;-71
2022/02/23 10:28:14;;;;;;;6.30;1.67;;;;;;;18.93;33.68;98539.41;5032351;28;20556;-71
2022/02/23 10:31:00;;;;;;;3.93;1.60;;;;;;;19.45;32.66;98533.50;5032961;28;20418;-71
2022/02/23 10:33:30;;;;;;;2.70;1.07;;;;;;;19.55;32.39;98535.06;5032875;28;20987;-71
2022/02/23 10:36:07;;;;;;;6.63;1.73;;;;;;;19.74;32.13;98531.09;5032766;28;20536;-71
2022/02/23 10:38:37;;;;;;;8.33;1.50;;;;;;;19.77;32.25;98520.94;5025493;28;20418;-72
2022/02/23 10:41:04;;;;;;;4.97;1.60;;;;;;;19.74;32.12;98525.78;5033358;28;20422;-71
2022/02/23 10:43:30;;;;;;;5.50;1.50;;;;;;;20.02;31.56;98522.56;5032660;28;20445;-71
2022/02/23 10:46:03;;;;;;;6.00;1.40;;;;;;;19.85;31.89;98522.69;5032493;28;20448;-71
2022/02/23 10:48:34;;;;;;;4.80;1.40;;;;;;;20.34;31.73;98526.75;5031919;28;21004;-71
2022/02/23 10:51:00;;;;;;;8.30;1.40;;;;;;;20.45;31.26;98527.28;5028607;28;20453;-71
2022/02/23 10:53:27;;;;;;;4.13;1.27;;;;;;;20.72;31.11;98523.16;5031862;28;20419;-71
2022/02/23 10:55:53;;;;;;;3.20;1.30;;;;;;;20.83;30.31;98520.06;5014743;28;20592;-71
2022/02/23 10:58:18;;;;;;;9.63;2.10;;;;;;;20.52;30.60;98517.56;5031973;28;20417;-71
2022/02/23 11:00:47;;;;;;;4.20;1.70;;;;;;;20.55;30.57;98512.69;5032725;28;20782;-71
2022/02/23 11:03:13;;;;;;;6.33;1.40;;;;;;;20.78;30.21;98508.31;5032310;28;20180;-71
2022/02/23 11:05:39;;;;;;;6.87;1.50;;;;;;;20.62;30.42;98514.59;5014360;28;20430;-71
2022/02/23 11:08:11;;;;;;;3.30;1.30;;;;;;;20.33;30.28;98519.75;5032184;28;20458;-72
2022/02/23 11:10:36;;;;;;;6.40;1.77;;;;;;;20.67;30.52;98521.03;5019923;28;20643;-71
2022/02/23 11:13:02;;;;;;;4.67;1.57;;;;;;;19.98;30.75;98518.63;5015437;28;20427;-71
2022/02/23 11:15:30;;;;;;;3.93;1.53;;;;;;;20.19;30.40;98507.28;5031803;28;20200;-72
2022/02/23 11:17:56;;;;;;;4.50;1.30;;;;;;;20.16;30.48;98515.63;5014266;28;20547;-71
2022/02/23 11:20:26;;;;;;;6.87;1.77;;;;;;;20.03;30.96;98509.13;5014183;28;20838;-72
2022/02/23 11:22:56;;;;;;;7.00;1.60;;;;;;;20.17;31.07;98503.97;5031865;28;20882;-71
2022/02/23 11:25:26;;;;;;;6.70;1.60;;;;;;;20.16;31.18;98497.00;5031797;28;20426;-71
2022/02/23 11:27:56;;;;;;;5.97;1.23;;;;;;;20.48;31.19;98501.13;5014262;28;20466;-71
2022/02/23 11:30:26;;;;;;;7.13;1.87;;;;;;;20.54;30.55;98496.91;5014056;28;20453;-72
2022/02/23 11:32:51;;;;;;;3.53;1.30;;;;;;;20.56;30.02;98497.53;5014114;28;20513;-71
2022/02/23 11:35:44;;;;;;;7.93;1.60;;;;;;;20.22;30.25;98482.97;5031312;28;20445;-71
2022/02/23 11:38:15;;;;;;;4.83;1.23;;;;;;;20.59;30.13;98481.19;5031678;28;20207;-71